Terminal Aerodrome Forecast
Issued by NWS

Home | Current Version | Previous Version | Text Only | Print | Product List | Glossary On
Versions: 1 2 3 4 5 6 7 8 9 10 11 12 13 14 15 16
000
FTAK31 PAJN 261129
TAFAPG
TAF
PAPG 261129Z 2612/2712 00000KT P6SM FEW008 OVC040
     FM262000 06005KT P6SM SCT050 BKN080 OVC100
     FM270300 14006KT P6SM VCSH OVC060
     FM270700 14004KT 5SM -RASN BR BKN020 OVC040
      AMD LTD TO CLD VIS AND WIND TIL 261500=

USA.gov is the U.S. government's official web portal to all federal, state and local government web resources and services.